sensor_id;sensor_type;location;lat;lon;timestamp;pressure;altitude;pressure_sealevel;temperature;humidity
77161;BME280;66135;0.000;0.000;2023-12-20T00:01:19;101509.25;;;18.70;61.71
77161;BME280;66135;0.000;0.000;2023-12-20T00:03:45;101502.94;;;18.69;61.70
77161;BME280;66135;0.000;0.000;2023-12-20T00:06:10;101507.84;;;18.66;61.65
77161;BME280;66135;0.000;0.000;2023-12-20T00:08:36;101493.59;;;18.64;61.61
77161;BME280;66135;0.000;0.000;2023-12-20T00:11:01;101512.47;;;18.65;61.71
77161;BME280;66135;0.000;0.000;2023-12-20T00:13:27;101517.19;;;18.63;61.72
77161;BME280;66135;0.000;0.000;2023-12-20T00:15:52;101518.19;;;18.62;61.64
77161;BME280;66135;0.000;0.000;2023-12-20T00:18:17;101518.69;;;18.58;61.42
77161;BME280;66135;0.000;0.000;2023-12-20T00:20:42;101522.91;;;18.60;61.67
77161;BME280;66135;0.000;0.000;2023-12-20T00:23:08;101523.25;;;18.57;61.71
77161;BME280;66135;0.000;0.000;2023-12-20T00:25:34;101520.06;;;18.62;61.33
77161;BME280;66135;0.000;0.000;2023-12-20T00:28:00;101525.63;;;18.60;61.29
77161;BME280;66135;0.000;0.000;2023-12-20T00:30:25;101518.50;;;18.59;61.28
77161;BME280;66135;0.000;0.000;2023-12-20T00:32:51;101516.97;;;18.57;61.38
77161;BME280;66135;0.000;0.000;2023-12-20T00:35:17;101518.69;;;18.58;61.33
77161;BME280;66135;0.000;0.000;2023-12-20T00:37:43;101516.44;;;18.53;61.42
77161;BME280;66135;0.000;0.000;2023-12-20T00:40:08;101505.44;;;18.55;61.21
77161;BME280;66135;0.000;0.000;2023-12-20T00:42:34;101509.47;;;18.51;61.19
77161;BME280;66135;0.000;0.000;2023-12-20T00:45:00;101505.06;;;18.50;61.32
77161;BME280;66135;0.000;0.000;2023-12-20T00:47:25;101502.50;;;18.48;61.14
77161;BME280;66135;0.000;0.000;2023-12-20T00:49:51;101495.91;;;18.51;61.15
77161;BME280;66135;0.000;0.000;2023-12-20T00:52:17;101504.91;;;18.51;61.04
77161;BME280;66135;0.000;0.000;2023-12-20T00:54:43;101497.06;;;18.48;60.91
77161;BME280;66135;0.000;0.000;2023-12-20T00:57:08;101499.78;;;18.48;61.16
77161;BME280;66135;0.000;0.000;2023-12-20T00:59:34;101497.06;;;18.48;60.89
77161;BME280;66135;0.000;0.000;2023-12-20T01:01:59;101496.09;;;18.49;60.81
77161;BME280;66135;0.000;0.000;2023-12-20T01:04:24;101489.09;;;18.47;60.60
77161;BME280;66135;0.000;0.000;2023-12-20T01:06:50;101494.88;;;18.44;60.66
77161;BME280;66135;0.000;0.000;2023-12-20T01:09:15;101500.13;;;18.45;60.89
77161;BME280;66135;0.000;0.000;2023-12-20T01:11:41;101510.28;;;18.43;60.81
77161;BME280;66135;0.000;0.000;2023-12-20T01:14:06;101504.28;;;18.40;60.74
77161;BME280;66135;0.000;0.000;2023-12-20T01:16:31;101511.91;;;18.36;60.98
77161;BME280;66135;0.000;0.000;2023-12-20T01:18:57;101513.63;;;18.37;60.77
77161;BME280;66135;0.000;0.000;2023-12-20T01:21:23;101517.31;;;18.36;61.01
77161;BME280;66135;0.000;0.000;2023-12-20T01:23:49;101522.91;;;18.35;60.77
77161;BME280;66135;0.000;0.000;2023-12-20T01:26:14;101522.22;;;18.33;60.88
77161;BME280;66135;0.000;0.000;2023-12-20T01:28:40;101516.09;;;18.31;60.92
77161;BME280;66135;0.000;0.000;2023-12-20T01:31:05;101510.66;;;18.31;60.64
77161;BME280;66135;0.000;0.000;2023-12-20T01:33:31;101514.25;;;18.31;61.04
77161;BME280;66135;0.000;0.000;2023-12-20T01:35:56;101514.41;;;18.30;60.68
77161;BME280;66135;0.000;0.000;2023-12-20T01:38:21;101508.13;;;18.29;60.68
77161;BME280;66135;0.000;0.000;2023-12-20T01:40:47;101517.28;;;18.28;60.68
77161;BME280;66135;0.000;0.000;2023-12-20T01:43:13;101511.84;;;18.28;60.64
77161;BME280;66135;0.000;0.000;2023-12-20T01:45:42;101514.91;;;18.25;60.77
77161;BME280;66135;0.000;0.000;2023-12-20T01:48:08;101509.78;;;18.22;60.84
77161;BME280;66135;0.000;0.000;2023-12-20T01:50:36;101514.38;;;18.22;60.73
77161;BME280;66135;0.000;0.000;2023-12-20T01:53:03;101514.38;;;18.22;60.86
77161;BME280;66135;0.000;0.000;2023-12-20T01:55:31;101512.66;;;18.21;60.80
77161;BME280;66135;0.000;0.000;2023-12-20T01:57:59;101513.66;;;18.20;60.82
77161;BME280;66135;0.000;0.000;2023-12-20T02:00:26;101511.13;;;18.18;60.86
77161;BME280;66135;0.000;0.000;2023-12-20T02:02:53;101502.13;;;18.18;60.88
77161;BME280;66135;0.000;0.000;2023-12-20T02:05:20;101498.72;;;18.16;60.89
77161;BME280;66135;0.000;0.000;2023-12-20T02:07:46;101515.00;;;18.16;60.81
77161;BME280;66135;0.000;0.000;2023-12-20T02:10:11;101509.56;;;18.16;60.98
77161;BME280;66135;0.000;0.000;2023-12-20T02:12:37;101511.41;;;18.15;60.62
77161;BME280;66135;0.000;0.000;2023-12-20T02:15:02;101506.16;;;18.14;60.61
77161;BME280;66135;0.000;0.000;2023-12-20T02:17:29;101517.16;;;18.12;60.69
77161;BME280;66135;0.000;0.000;2023-12-20T02:19:55;101515.63;;;18.10;60.76
77161;BME280;66135;0.000;0.000;2023-12-20T02:22:20;101525.63;;;18.09;60.80
77161;BME280;66135;0.000;0.000;2023-12-20T02:24:45;101526.31;;;18.11;60.61
77161;BME280;66135;0.000;0.000;2023-12-20T02:27:11;101506.81;;;18.08;60.92
77161;BME280;66135;0.000;0.000;2023-12-20T02:29:37;101496.94;;;18.07;60.92
77161;BME280;66135;0.000;0.000;2023-12-20T02:32:02;101499.81;;;18.05;60.90
77161;BME280;66135;0.000;0.000;2023-12-20T02:34:28;101498.13;;;18.04;60.86
77161;BME280;66135;0.000;0.000;2023-12-20T02:36:53;101499.13;;;18.03;60.76
77161;BME280;66135;0.000;0.000;2023-12-20T02:39:19;101513.38;;;18.05;60.68
77161;BME280;66135;0.000;0.000;2023-12-20T02:41:44;101510.13;;;18.02;60.65
77161;BME280;66135;0.000;0.000;2023-12-20T02:44:10;101522.00;;;18.01;60.60
77161;BME280;66135;0.000;0.000;2023-12-20T02:46:35;101513.88;;;18.01;60.84
77161;BME280;66135;0.000;0.000;2023-12-20T02:49:00;101509.59;;;17.98;60.94
77161;BME280;66135;0.000;0.000;2023-12-20T02:51:26;101520.78;;;17.95;60.99
77161;BME280;66135;0.000;0.000;2023-12-20T02:53:51;101516.03;;;17.97;60.96
77161;BME280;66135;0.000;0.000;2023-12-20T02:56:17;101519.91;;;17.94;60.92
77161;BME280;66135;0.000;0.000;2023-12-20T02:58:42;101517.19;;;17.94;60.98
77161;BME280;66135;0.000;0.000;2023-12-20T03:01:07;101520.78;;;17.95;60.87
77161;BME280;66135;0.000;0.000;2023-12-20T03:03:33;101515.50;;;17.93;60.93
77161;BME280;66135;0.000;0.000;2023-12-20T03:05:58;101517.53;;;17.91;60.88
77161;BME280;66135;0.000;0.000;2023-12-20T03:08:23;101510.25;;;17.92;61.10
77161;BME280;66135;0.000;0.000;2023-12-20T03:10:49;101509.38;;;17.91;61.10
77161;BME280;66135;0.000;0.000;2023-12-20T03:13:15;101505.97;;;17.89;60.99
77161;BME280;66135;0.000;0.000;2023-12-20T03:15:40;101510.53;;;17.89;60.79
77161;BME280;66135;0.000;0.000;2023-12-20T03:18:05;101503.59;;;17.86;61.05
77161;BME280;66135;0.000;0.000;2023-12-20T03:20:31;101492.06;;;17.84;60.93
77161;BME280;66135;0.000;0.000;2023-12-20T03:22:59;101501.19;;;17.83;61.05
77161;BME280;66135;0.000;0.000;2023-12-20T03:25:25;101495.78;;;17.83;60.73
77161;BME280;66135;0.000;0.000;2023-12-20T03:27:50;101497.63;;;17.83;61.04
77161;BME280;66135;0.000;0.000;2023-12-20T03:30:15;101495.78;;;17.83;60.75
77161;BME280;66135;0.000;0.000;2023-12-20T03:32:41;101503.38;;;17.80;60.83
77161;BME280;66135;0.000;0.000;2023-12-20T03:35:06;101494.91;;;17.83;60.72
77161;BME280;66135;0.000;0.000;2023-12-20T03:37:32;101502.53;;;17.79;61.10
77161;BME280;66135;0.000;0.000;2023-12-20T03:39:57;101499.81;;;17.79;61.08
77161;BME280;66135;0.000;0.000;2023-12-20T03:42:22;101501.81;;;17.77;60.90
77161;BME280;66135;0.000;0.000;2023-12-20T03:44:47;101490.81;;;17.79;60.93
77161;BME280;66135;0.000;0.000;2023-12-20T03:47:13;101490.28;;;17.75;60.47
77161;BME280;66135;0.000;0.000;2023-12-20T03:49:38;101497.53;;;17.75;61.06
77161;BME280;66135;0.000;0.000;2023-12-20T03:52:04;101483.47;;;17.71;61.18
77161;BME280;66135;0.000;0.000;2023-12-20T03:54:29;101479.59;;;17.74;61.11
77161;BME280;66135;0.000;0.000;2023-12-20T03:56:55;101467.19;;;17.71;61.28
77161;BME280;66135;0.000;0.000;2023-12-20T03:59:20;101480.63;;;17.73;61.00
77161;BME280;66135;0.000;0.000;2023-12-20T04:01:45;101486.03;;;17.73;60.87
77161;BME280;66135;0.000;0.000;2023-12-20T04:04:11;101476.34;;;17.70;60.91
77161;BME280;66135;0.000;0.000;2023-12-20T04:06:37;101476.34;;;17.70;60.96
77161;BME280;66135;0.000;0.000;2023-12-20T04:09:03;101488.50;;;17.66;61.21
77161;BME280;66135;0.000;0.000;2023-12-20T04:11:28;101485.63;;;17.68;61.02
77161;BME280;66135;0.000;0.000;2023-12-20T04:13:54;101483.94;;;17.67;61.15
77161;BME280;66135;0.000;0.000;2023-12-20T04:16:19;101493.91;;;17.66;61.14
77161;BME280;66135;0.000;0.000;2023-12-20T04:18:44;101495.94;;;17.64;61.14
77161;BME280;66135;0.000;0.000;2023-12-20T04:21:10;101497.66;;;17.65;61.18
77161;BME280;66135;0.000;0.000;2023-12-20T04:23:35;101507.78;;;17.63;61.07
77161;BME280;66135;0.000;0.000;2023-12-20T04:26:01;101496.09;;;17.63;61.04
77161;BME280;66135;0.000;0.000;2023-12-20T04:28:26;101504.22;;;17.63;61.02
77161;BME280;66135;0.000;0.000;2023-12-20T04:30:51;101490.66;;;17.63;61.12
77161;BME280;66135;0.000;0.000;2023-12-20T04:33:17;101494.25;;;17.63;61.00
77161;BME280;66135;0.000;0.000;2023-12-20T04:35:42;101503.53;;;17.61;61.17
77161;BME280;66135;0.000;0.000;2023-12-20T04:38:08;101493.53;;;17.61;61.10
77161;BME280;66135;0.000;0.000;2023-12-20T04:40:34;101498.56;;;17.56;61.08
77161;BME280;66135;0.000;0.000;2023-12-20T04:43:00;101495.72;;;17.58;60.65
77161;BME280;66135;0.000;0.000;2023-12-20T04:45:25;101490.28;;;17.58;60.93
77161;BME280;66135;0.000;0.000;2023-12-20T04:47:51;101495.72;;;17.58;61.16
77161;BME280;66135;0.000;0.000;2023-12-20T04:50:16;101494.03;;;17.57;61.16
77161;BME280;66135;0.000;0.000;2023-12-20T04:52:42;101492.28;;;17.56;61.12
77161;BME280;66135;0.000;0.000;2023-12-20T04:55:07;101493.31;;;17.55;61.23
77161;BME280;66135;0.000;0.000;2023-12-20T04:57:34;101486.06;;;17.55;61.14
77161;BME280;66135;0.000;0.000;2023-12-20T04:59:59;101488.06;;;17.53;61.12
77161;BME280;66135;0.000;0.000;2023-12-20T05:02:24;101488.06;;;17.53;61.27
77161;BME280;66135;0.000;0.000;2023-12-20T05:04:50;101495.50;;;17.51;61.37
77161;BME280;66135;0.000;0.000;2023-12-20T05:07:15;101495.50;;;17.51;61.26
77161;BME280;66135;0.000;0.000;2023-12-20T05:09:41;101485.81;;;17.49;61.11
77161;BME280;66135;0.000;0.000;2023-12-20T05:12:07;101482.41;;;17.47;61.36
77161;BME280;66135;0.000;0.000;2023-12-20T05:14:32;101473.28;;;17.48;61.41
77161;BME280;66135;0.000;0.000;2023-12-20T05:16:58;101471.84;;;17.44;61.30
77161;BME280;66135;0.000;0.000;2023-12-20T05:19:24;101484.41;;;17.45;61.26
77161;BME280;66135;0.000;0.000;2023-12-20T05:21:49;101472.69;;;17.44;61.18
77161;BME280;66135;0.000;0.000;2023-12-20T05:24:15;101477.97;;;17.46;61.12
77161;BME280;66135;0.000;0.000;2023-12-20T05:26:40;101474.56;;;17.44;61.06
77161;BME280;66135;0.000;0.000;2023-12-20T05:29:05;101478.28;;;17.43;61.03
77161;BME280;66135;0.000;0.000;2023-12-20T05:31:31;101472.16;;;17.41;61.25
77161;BME280;66135;0.000;0.000;2023-12-20T05:33:57;101479.25;;;17.42;61.06
77161;BME280;66135;0.000;0.000;2023-12-20T05:36:22;101473.03;;;17.41;61.02
77161;BME280;66135;0.000;0.000;2023-12-20T05:38:48;101469.28;;;17.42;61.10
77161;BME280;66135;0.000;0.000;2023-12-20T05:41:13;101474.72;;;17.42;61.21
77161;BME280;66135;0.000;0.000;2023-12-20T05:43:39;101469.63;;;17.39;61.35
77161;BME280;66135;0.000;0.000;2023-12-20T05:46:04;101467.88;;;17.38;61.34
77161;BME280;66135;0.000;0.000;2023-12-20T05:48:29;101477.91;;;17.38;61.40
77161;BME280;66135;0.000;0.000;2023-12-20T05:50:55;101479.75;;;17.37;61.43
77161;BME280;66135;0.000;0.000;2023-12-20T05:53:20;101480.59;;;17.38;61.52
77161;BME280;66135;0.000;0.000;2023-12-20T05:55:46;101481.59;;;17.37;61.53
77161;BME280;66135;0.000;0.000;2023-12-20T05:58:11;101483.47;;;17.36;61.74
77161;BME280;66135;0.000;0.000;2023-12-20T06:00:37;101487.88;;;17.37;61.79
77161;BME280;66135;0.000;0.000;2023-12-20T06:03:03;101487.00;;;17.37;61.42
77161;BME280;66135;0.000;0.000;2023-12-20T06:05:30;101486.31;;;17.35;61.61
77161;BME280;66135;0.000;0.000;2023-12-20T06:07:55;101489.00;;;17.35;61.63
77161;BME280;66135;0.000;0.000;2023-12-20T06:10:26;101501.56;;;17.36;61.72
77161;BME280;66135;0.000;0.000;2023-12-20T06:12:51;101503.56;;;17.34;61.85
77161;BME280;66135;0.000;0.000;2023-12-20T06:15:17;101512.00;;;17.31;61.75
77161;BME280;66135;0.000;0.000;2023-12-20T06:17:43;101498.63;;;17.29;61.81
77161;BME280;66135;0.000;0.000;2023-12-20T06:20:08;101497.78;;;17.29;61.74
77161;BME280;66135;0.000;0.000;2023-12-20T06:22:35;101497.78;;;17.29;61.88
77161;BME280;66135;0.000;0.000;2023-12-20T06:25:02;101497.94;;;17.27;61.80
77161;BME280;66135;0.000;0.000;2023-12-20T06:27:28;101504.50;;;17.25;61.88
77161;BME280;66135;0.000;0.000;2023-12-20T06:29:54;101502.81;;;17.24;61.95
77161;BME280;66135;0.000;0.000;2023-12-20T06:32:19;101497.22;;;17.25;61.82
77161;BME280;66135;0.000;0.000;2023-12-20T06:34:44;101496.53;;;17.23;62.06
77161;BME280;66135;0.000;0.000;2023-12-20T06:37:10;101498.09;;;17.26;61.96
77161;BME280;66135;0.000;0.000;2023-12-20T06:39:35;101504.66;;;17.23;62.03
77161;BME280;66135;0.000;0.000;2023-12-20T06:42:01;101502.09;;;17.22;61.90
77161;BME280;66135;0.000;0.000;2023-12-20T06:44:26;101511.91;;;17.23;61.89
77161;BME280;66135;0.000;0.000;2023-12-20T06:46:52;101510.91;;;17.24;61.87
77161;BME280;66135;0.000;0.000;2023-12-20T06:49:17;101501.63;;;17.26;61.87
77161;BME280;66135;0.000;0.000;2023-12-20T06:51:43;101501.94;;;17.23;62.01
77161;BME280;66135;0.000;0.000;2023-12-20T06:54:09;101501.78;;;17.25;61.72
77161;BME280;66135;0.000;0.000;2023-12-20T06:56:34;101502.09;;;17.22;61.77
77161;BME280;66135;0.000;0.000;2023-12-20T06:59:00;101499.38;;;17.22;62.01
77161;BME280;66135;0.000;0.000;2023-12-20T07:01:25;101484.84;;;17.23;62.00
77161;BME280;66135;0.000;0.000;2023-12-20T07:03:50;101488.25;;;17.25;62.04
77161;BME280;66135;0.000;0.000;2023-12-20T07:06:16;101484.94;;;17.31;61.94
77161;BME280;66135;0.000;0.000;2023-12-20T07:08:42;101484.78;;;17.32;62.12
77161;BME280;66135;0.000;0.000;2023-12-20T07:11:07;101483.75;;;17.33;62.22
77161;BME280;66135;0.000;0.000;2023-12-20T07:13:33;101486.72;;;17.40;61.83
77161;BME280;66135;0.000;0.000;2023-12-20T07:15:58;101484.28;;;17.46;61.58
77161;BME280;66135;0.000;0.000;2023-12-20T07:18:24;101484.09;;;17.48;61.49
77161;BME280;66135;0.000;0.000;2023-12-20T07:20:49;101474.84;;;17.50;61.35
77161;BME280;66135;0.000;0.000;2023-12-20T07:23:15;101477.06;;;17.55;61.37
77161;BME280;66135;0.000;0.000;2023-12-20T07:25:40;101479.44;;;17.58;61.18
77161;BME280;66135;0.000;0.000;2023-12-20T07:28:06;101480.00;;;17.61;61.39
77161;BME280;66135;0.000;0.000;2023-12-20T07:30:31;101477.13;;;17.63;61.58
77161;BME280;66135;0.000;0.000;2023-12-20T07:32:57;101491.53;;;17.63;61.71
77161;BME280;66135;0.000;0.000;2023-12-20T07:35:23;101487.81;;;17.64;62.05
77161;BME280;66135;0.000;0.000;2023-12-20T07:37:49;101483.41;;;17.63;62.03
77161;BME280;66135;0.000;0.000;2023-12-20T07:40:14;101493.38;;;17.63;62.04
77161;BME280;66135;0.000;0.000;2023-12-20T07:42:42;101489.69;;;17.64;62.39
77161;BME280;66135;0.000;0.000;2023-12-20T07:45:07;101496.78;;;17.65;62.06
77161;BME280;66135;0.000;0.000;2023-12-20T07:47:32;101498.50;;;17.66;62.62
77161;BME280;66135;0.000;0.000;2023-12-20T07:49:58;101498.81;;;17.63;62.37
77161;BME280;66135;0.000;0.000;2023-12-20T07:52:24;101497.97;;;17.62;62.23
77161;BME280;66135;0.000;0.000;2023-12-20T07:54:49;101503.53;;;17.61;62.50
77161;BME280;66135;0.000;0.000;2023-12-20T07:57:14;101495.38;;;17.61;62.26
77161;BME280;66135;0.000;0.000;2023-12-20T07:59:40;101483.72;;;17.60;62.41
77161;BME280;66135;0.000;0.000;2023-12-20T08:02:05;101494.72;;;17.59;62.24
77161;BME280;66135;0.000;0.000;2023-12-20T08:04:31;101499.13;;;17.60;62.70
77161;BME280;66135;0.000;0.000;2023-12-20T08:06:57;101492.00;;;17.59;62.75
77161;BME280;66135;0.000;0.000;2023-12-20T08:09:23;101490.13;;;17.59;62.63
77161;BME280;66135;0.000;0.000;2023-12-20T08:11:48;101504.53;;;17.60;62.54
77161;BME280;66135;0.000;0.000;2023-12-20T08:14:14;101509.09;;;17.59;62.80
77161;BME280;66135;0.000;0.000;2023-12-20T08:16:39;101502.84;;;17.59;62.73
77161;BME280;66135;0.000;0.000;2023-12-20T08:19:05;101495.88;;;17.56;62.90
77161;BME280;66135;0.000;0.000;2023-12-20T08:21:31;101497.72;;;17.56;63.01
77161;BME280;66135;0.000;0.000;2023-12-20T08:23:56;101503.13;;;17.56;62.77
77161;BME280;66135;0.000;0.000;2023-12-20T08:26:22;101503.28;;;17.54;63.00
77161;BME280;66135;0.000;0.000;2023-12-20T08:28:48;101514.28;;;17.53;62.92
77161;BME280;66135;0.000;0.000;2023-12-20T08:31:17;101508.00;;;17.52;63.04
77161;BME280;66135;0.000;0.000;2023-12-20T08:33:46;101519.72;;;17.53;63.05
77161;BME280;66135;0.000;0.000;2023-12-20T08:36:12;101511.19;;;17.48;63.11
77161;BME280;66135;0.000;0.000;2023-12-20T08:38:38;101503.34;;;17.45;62.86
77161;BME280;66135;0.000;0.000;2023-12-20T08:41:03;101515.03;;;17.45;63.03
77161;BME280;66135;0.000;0.000;2023-12-20T08:43:32;101510.63;;;17.44;63.35
77161;BME280;66135;0.000;0.000;2023-12-20T08:45:59;101510.63;;;17.44;63.45
77161;BME280;66135;0.000;0.000;2023-12-20T08:48:24;101510.34;;;17.47;63.20
77161;BME280;66135;0.000;0.000;2023-12-20T08:50:50;101506.06;;;17.45;63.36
77161;BME280;66135;0.000;0.000;2023-12-20T08:53:17;101494.38;;;17.44;63.43
77161;BME280;66135;0.000;0.000;2023-12-20T08:55:43;101488.94;;;17.44;63.32
77161;BME280;66135;0.000;0.000;2023-12-20T08:58:08;101485.38;;;17.44;63.53
77161;BME280;66135;0.000;0.000;2023-12-20T09:00:34;101493.34;;;17.45;63.46
77161;BME280;66135;0.000;0.000;2023-12-20T09:03:01;101488.78;;;17.46;63.22
77161;BME280;66135;0.000;0.000;2023-12-20T09:05:26;101486.09;;;17.46;63.20
77161;BME280;66135;0.000;0.000;2023-12-20T09:07:52;101485.97;;;17.47;63.21
77161;BME280;66135;0.000;0.000;2023-12-20T09:10:17;101483.69;;;17.43;63.35
77161;BME280;66135;0.000;0.000;2023-12-20T09:12:56;101484.13;;;17.38;63.55
77161;BME280;66135;0.000;0.000;2023-12-20T09:15:26;101478.19;;;17.35;63.38
77161;BME280;66135;0.000;0.000;2023-12-20T09:17:51;101486.19;;;17.36;63.45
77161;BME280;66135;0.000;0.000;2023-12-20T09:20:17;101494.44;;;17.35;63.40
77161;BME280;66135;0.000;0.000;2023-12-20T09:22:42;101488.34;;;17.33;63.38
77161;BME280;66135;0.000;0.000;2023-12-20T09:25:09;101490.91;;;17.34;63.23
77161;BME280;66135;0.000;0.000;2023-12-20T09:27:35;101496.59;;;17.31;63.21
77161;BME280;66135;0.000;0.000;2023-12-20T09:30:00;101503.88;;;17.31;63.39
77161;BME280;66135;0.000;0.000;2023-12-20T09:32:26;101496.75;;;17.30;63.23
77161;BME280;66135;0.000;0.000;2023-12-20T09:34:51;101500.31;;;17.30;63.11
77161;BME280;66135;0.000;0.000;2023-12-20T09:37:17;101501.03;;;17.32;63.28
77161;BME280;66135;0.000;0.000;2023-12-20T09:39:42;101502.16;;;17.30;63.49
77161;BME280;66135;0.000;0.000;2023-12-20T09:42:08;101495.06;;;17.29;63.26
77161;BME280;66135;0.000;0.000;2023-12-20T09:44:36;101498.75;;;17.28;63.46
77161;BME280;66135;0.000;0.000;2023-12-20T09:47:05;101489.34;;;17.32;63.54
77161;BME280;66135;0.000;0.000;2023-12-20T09:49:32;101486.63;;;17.32;63.30
77161;BME280;66135;0.000;0.000;2023-12-20T09:51:59;101484.06;;;17.30;63.47
77161;BME280;66135;0.000;0.000;2023-12-20T09:54:25;101478.66;;;17.30;63.43
77161;BME280;66135;0.000;0.000;2023-12-20T09:56:52;101487.31;;;17.34;63.18
77161;BME280;66135;0.000;0.000;2023-12-20T09:59:17;101491.06;;;17.33;63.39
77161;BME280;66135;0.000;0.000;2023-12-20T10:01:43;101481.91;;;17.34;63.26
77161;BME280;66135;0.000;0.000;2023-12-20T10:04:10;101471.06;;;17.34;63.44
77161;BME280;66135;0.000;0.000;2023-12-20T10:06:44;101470.38;;;17.32;63.24
77161;BME280;66135;0.000;0.000;2023-12-20T10:09:10;101477.63;;;17.31;63.49
77161;BME280;66135;0.000;0.000;2023-12-20T10:11:37;101486.63;;;17.32;63.38
77161;BME280;66135;0.000;0.000;2023-12-20T10:14:03;101477.63;;;17.31;63.61
77161;BME280;66135;0.000;0.000;2023-12-20T10:16:29;101474.09;;;17.31;63.56
77161;BME280;66135;0.000;0.000;2023-12-20T10:18:55;101472.38;;;17.30;63.63
77161;BME280;66135;0.000;0.000;2023-12-20T10:21:21;101476.81;;;17.31;63.53
77161;BME280;66135;0.000;0.000;2023-12-20T10:23:47;101471.41;;;17.31;63.40
77161;BME280;66135;0.000;0.000;2023-12-20T10:26:22;101467.97;;;17.29;63.69
77161;BME280;66135;0.000;0.000;2023-12-20T10:28:55;101474.00;;;17.23;63.56
77161;BME280;66135;0.000;0.000;2023-12-20T10:31:29;101486.00;;;17.20;63.70
77161;BME280;66135;0.000;0.000;2023-12-20T10:33:59;101482.59;;;17.18;63.39
77161;BME280;66135;0.000;0.000;2023-12-20T10:36:25;101490.72;;;17.18;63.57
77161;BME280;66135;0.000;0.000;2023-12-20T10:38:52;101488.88;;;17.19;63.65
77161;BME280;66135;0.000;0.000;2023-12-20T10:41:26;101493.28;;;17.20;63.48
77161;BME280;66135;0.000;0.000;2023-12-20T10:43:58;101485.00;;;17.21;63.42
77161;BME280;66135;0.000;0.000;2023-12-20T10:46:24;101477.72;;;17.22;63.53
77161;BME280;66135;0.000;0.000;2023-12-20T10:48:53;101472.31;;;17.22;63.44
77161;BME280;66135;0.000;0.000;2023-12-20T10:51:20;101469.59;;;17.22;63.60
77161;BME280;66135;0.000;0.000;2023-12-20T10:53:49;101456.06;;;17.22;63.53
77161;BME280;66135;0.000;0.000;2023-12-20T10:56:18;101452.34;;;17.23;63.52
77161;BME280;66135;0.000;0.000;2023-12-20T10:58:45;101458.63;;;17.23;63.39
77161;BME280;66135;0.000;0.000;2023-12-20T11:01:16;101454.75;;;17.26;63.39
77161;BME280;66135;0.000;0.000;2023-12-20T11:03:50;101454.22;;;17.22;63.52
77161;BME280;66135;0.000;0.000;2023-12-20T11:09:26;101449.63;;;17.23;63.81
77161;BME280;66135;0.000;0.000;2023-12-20T11:14:40;101446.91;;;17.23;64.37
77161;BME280;66135;0.000;0.000;2023-12-20T11:17:10;101446.78;;;17.24;64.32
77161;BME280;66135;0.000;0.000;2023-12-20T11:22:20;101443.06;;;17.25;64.48
77161;BME280;66135;0.000;0.000;2023-12-20T11:24:47;101438.81;;;17.23;64.07
77161;BME280;66135;0.000;0.000;2023-12-20T11:27:14;101438.81;;;17.23;64.40
77161;BME280;66135;0.000;0.000;2023-12-20T11:29:40;101430.00;;;17.21;64.34
77161;BME280;66135;0.000;0.000;2023-12-20T11:35:19;101419.84;;;17.23;64.38
77161;BME280;66135;0.000;0.000;2023-12-20T11:37:45;101417.31;;;17.21;64.19
77161;BME280;66135;0.000;0.000;2023-12-20T11:40:17;101405.66;;;17.21;64.29
77161;BME280;66135;0.000;0.000;2023-12-20T11:42:49;101401.22;;;17.20;64.16
77161;BME280;66135;0.000;0.000;2023-12-20T11:45:18;101403.91;;;17.20;64.42
77161;BME280;66135;0.000;0.000;2023-12-20T11:47:47;101405.94;;;17.18;64.34
77161;BME280;66135;0.000;0.000;2023-12-20T11:50:15;101407.81;;;17.17;64.47
77161;BME280;66135;0.000;0.000;2023-12-20T11:52:40;101412.75;;;17.22;64.36
77161;BME280;66135;0.000;0.000;2023-12-20T11:55:06;101417.16;;;17.23;64.65
77161;BME280;66135;0.000;0.000;2023-12-20T11:57:33;101410.91;;;17.22;64.64
77161;BME280;66135;0.000;0.000;2023-12-20T11:59:58;101397.97;;;17.16;64.76
77161;BME280;66135;0.000;0.000;2023-12-20T12:02:24;101406.78;;;17.18;65.59
77161;BME280;66135;0.000;0.000;2023-12-20T12:04:49;101400.78;;;17.24;64.87
77161;BME280;66135;0.000;0.000;2023-12-20T12:07:18;101401.28;;;17.28;64.99
77161;BME280;66135;0.000;0.000;2023-12-20T12:09:43;101377.59;;;17.30;64.70
77161;BME280;66135;0.000;0.000;2023-12-20T12:12:10;101369.47;;;17.30;64.57
77161;BME280;66135;0.000;0.000;2023-12-20T12:14:35;101363.06;;;17.31;64.49
77161;BME280;66135;0.000;0.000;2023-12-20T12:17:03;101372.72;;;17.33;64.29
77161;BME280;66135;0.000;0.000;2023-12-20T12:19:29;101367.84;;;17.37;64.09
77161;BME280;66135;0.000;0.000;2023-12-20T12:22:09;101358.72;;;17.38;64.31
77161;BME280;66135;0.000;0.000;2023-12-20T12:24:40;101365.22;;;17.45;64.21
77161;BME280;66135;0.000;0.000;2023-12-20T12:27:06;101359.34;;;17.49;64.30
77161;BME280;66135;0.000;0.000;2023-12-20T12:29:32;101366.00;;;17.55;64.45
77161;BME280;66135;0.000;0.000;2023-12-20T12:31:58;101373.97;;;17.56;64.16
77161;BME280;66135;0.000;0.000;2023-12-20T12:34:23;101381.59;;;17.61;64.21
77161;BME280;66135;0.000;0.000;2023-12-20T12:36:48;101378.44;;;17.65;64.22
77161;BME280;66135;0.000;0.000;2023-12-20T12:39:15;101372.53;;;17.70;64.67
77161;BME280;66135;0.000;0.000;2023-12-20T12:41:43;101366.81;;;17.73;64.47
77161;BME280;66135;0.000;0.000;2023-12-20T12:44:08;101366.66;;;17.74;64.64
77161;BME280;66135;0.000;0.000;2023-12-20T12:46:34;101365.47;;;17.77;64.99
77161;BME280;66135;0.000;0.000;2023-12-20T12:48:59;101370.59;;;17.80;64.78
77161;BME280;66135;0.000;0.000;2023-12-20T12:51:25;101356.88;;;17.81;64.39
77161;BME280;66135;0.000;0.000;2023-12-20T12:53:50;101349.72;;;17.80;64.34
77161;BME280;66135;0.000;0.000;2023-12-20T12:56:16;101356.34;;;17.78;64.08
77161;BME280;66135;0.000;0.000;2023-12-20T12:58:42;101340.78;;;17.80;63.69
77161;BME280;66135;0.000;0.000;2023-12-20T13:01:07;101341.44;;;17.82;64.36
77161;BME280;66135;0.000;0.000;2023-12-20T13:03:33;101332.47;;;17.81;63.67
77161;BME280;66135;0.000;0.000;2023-12-20T13:05:59;101336.00;;;17.82;64.16